sensor_id;sensor_type;location;lat;lon;timestamp;P1;durP1;ratioP1;P2;durP2;ratioP2
39584;SDS011;25278;53.674;10.014;2022-09-28T03:18:33;15.50;;;13.95;;
39584;SDS011;25278;53.674;10.014;2022-09-28T03:21:00;15.55;;;13.90;;
39584;SDS011;25278;53.674;10.014;2022-09-28T03:23:26;14.68;;;13.27;;
39584;SDS011;25278;53.674;10.014;2022-09-28T03:25:52;19.08;;;15.27;;
39584;SDS011;25278;53.674;10.014;2022-09-28T03:28:18;18.55;;;16.65;;
39584;SDS011;25278;53.674;10.014;2022-09-28T03:30:45;20.35;;;15.95;;
39584;SDS011;25278;53.674;10.014;2022-09-28T03:33:11;16.25;;;14.73;;
39584;SDS011;25278;53.674;10.014;2022-09-28T03:35:37;18.55;;;14.88;;
39584;SDS011;25278;53.674;10.014;2022-09-28T03:38:03;16.33;;;14.07;;
39584;SDS011;25278;53.674;10.014;2022-09-28T03:40:29;14.95;;;13.35;;
39584;SDS011;25278;53.674;10.014;2022-09-28T03:42:55;14.73;;;13.07;;
39584;SDS011;25278;53.674;10.014;2022-09-28T03:45:21;14.02;;;12.75;;
39584;SDS011;25278;53.674;10.014;2022-09-28T03:47:46;14.95;;;13.50;;
39584;SDS011;25278;53.674;10.014;2022-09-28T03:50:13;15.95;;;14.05;;
39584;SDS011;25278;53.674;10.014;2022-09-28T03:52:39;14.52;;;13.07;;
39584;SDS011;25278;53.674;10.014;2022-09-28T03:55:05;14.30;;;13.02;;
39584;SDS011;25278;53.674;10.014;2022-09-28T03:57:31;15.90;;;14.40;;
39584;SDS011;25278;53.674;10.014;2022-09-28T03:59:57;17.98;;;15.70;;
39584;SDS011;25278;53.674;10.014;2022-09-28T04:02:23;16.50;;;14.15;;
39584;SDS011;25278;53.674;10.014;2022-09-28T04:04:48;16.58;;;14.90;;
39584;SDS011;25278;53.674;10.014;2022-09-28T04:07:14;17.67;;;15.25;;
39584;SDS011;25278;53.674;10.014;2022-09-28T04:09:40;20.33;;;17.00;;
39584;SDS011;25278;53.674;10.014;2022-09-28T04:12:06;18.83;;;16.70;;
39584;SDS011;25278;53.674;10.014;2022-09-28T04:14:32;22.95;;;16.27;;
39584;SDS011;25278;53.674;10.014;2022-09-28T04:16:58;17.25;;;15.43;;
39584;SDS011;25278;53.674;10.014;2022-09-28T04:19:24;18.23;;;15.88;;
39584;SDS011;25278;53.674;10.014;2022-09-28T04:21:50;15.52;;;13.95;;
39584;SDS011;25278;53.674;10.014;2022-09-28T04:24:17;17.02;;;15.15;;
39584;SDS011;25278;53.674;10.014;2022-09-28T04:26:44;23.95;;;15.60;;
39584;SDS011;25278;53.674;10.014;2022-09-28T04:29:10;17.25;;;15.27;;
39584;SDS011;25278;53.674;10.014;2022-09-28T04:34:12;17.98;;;15.90;;
39584;SDS011;25278;53.674;10.014;2022-09-28T04:36:38;15.55;;;13.95;;
39584;SDS011;25278;53.674;10.014;2022-09-28T04:39:04;18.63;;;15.85;;
39584;SDS011;25278;53.674;10.014;2022-09-28T04:41:31;16.23;;;14.05;;
39584;SDS011;25278;53.674;10.014;2022-09-28T04:43:57;16.98;;;14.70;;
39584;SDS011;25278;53.674;10.014;2022-09-28T04:46:23;17.10;;;14.55;;
39584;SDS011;25278;53.674;10.014;2022-09-28T04:48:50;14.95;;;13.55;;
39584;SDS011;25278;53.674;10.014;2022-09-28T04:51:15;15.43;;;13.82;;
39584;SDS011;25278;53.674;10.014;2022-09-28T04:53:41;14.40;;;12.57;;
39584;SDS011;25278;53.674;10.014;2022-09-28T04:56:11;15.70;;;13.80;;
39584;SDS011;25278;53.674;10.014;2022-09-28T04:58:37;14.38;;;13.07;;
39584;SDS011;25278;53.674;10.014;2022-09-28T05:01:04;15.85;;;14.25;;
39584;SDS011;25278;53.674;10.014;2022-09-28T05:03:31;64.88;;;24.90;;
39584;SDS011;25278;53.674;10.014;2022-09-28T05:05:57;101.15;;;20.20;;
39584;SDS011;25278;53.674;10.014;2022-09-28T05:08:23;111.65;;;19.02;;
39584;SDS011;25278;53.674;10.014;2022-09-28T05:10:55;50.95;;;17.50;;
39584;SDS011;25278;53.674;10.014;2022-09-28T05:13:22;52.60;;;18.88;;
39584;SDS011;25278;53.674;10.014;2022-09-28T05:15:50;144.77;;;19.65;;
39584;SDS011;25278;53.674;10.014;2022-09-28T05:18:16;159.55;;;19.20;;
39584;SDS011;25278;53.674;10.014;2022-09-28T05:20:42;295.63;;;20.95;;
39584;SDS011;25278;53.674;10.014;2022-09-28T05:23:09;74.00;;;17.42;;
39584;SDS011;25278;53.674;10.014;2022-09-28T05:25:35;300.10;;;23.92;;
39584;SDS011;25278;53.674;10.014;2022-09-28T05:28:01;387.60;;;28.42;;
39584;SDS011;25278;53.674;10.014;2022-09-28T05:30:27;211.38;;;24.80;;
39584;SDS011;25278;53.674;10.014;2022-09-28T05:32:53;134.27;;;22.02;;
39584;SDS011;25278;53.674;10.014;2022-09-28T05:35:19;125.38;;;21.70;;
39584;SDS011;25278;53.674;10.014;2022-09-28T05:37:45;130.25;;;22.80;;
39584;SDS011;25278;53.674;10.014;2022-09-28T05:40:11;103.00;;;20.70;;
39584;SDS011;25278;53.674;10.014;2022-09-28T05:42:37;263.05;;;26.63;;
39584;SDS011;25278;53.674;10.014;2022-09-28T05:45:04;270.63;;;28.05;;
39584;SDS011;25278;53.674;10.014;2022-09-28T05:47:30;54.13;;;24.67;;
39584;SDS011;25278;53.674;10.014;2022-09-28T05:50:02;39.25;;;25.50;;
39584;SDS011;25278;53.674;10.014;2022-09-28T05:52:28;36.67;;;25.17;;
39584;SDS011;25278;53.674;10.014;2022-09-28T05:54:54;32.72;;;24.45;;
39584;SDS011;25278;53.674;10.014;2022-09-28T05:57:21;36.53;;;24.17;;
39584;SDS011;25278;53.674;10.014;2022-09-28T05:59:46;33.05;;;26.35;;
39584;SDS011;25278;53.674;10.014;2022-09-28T06:02:12;36.55;;;25.80;;
39584;SDS011;25278;53.674;10.014;2022-09-28T06:04:38;32.90;;;27.30;;
39584;SDS011;25278;53.674;10.014;2022-09-28T06:07:04;35.35;;;26.05;;
39584;SDS011;25278;53.674;10.014;2022-09-28T06:09:30;34.88;;;28.23;;
39584;SDS011;25278;53.674;10.014;2022-09-28T06:11:57;35.42;;;27.23;;
39584;SDS011;25278;53.674;10.014;2022-09-28T06:14:23;48.45;;;32.17;;
39584;SDS011;25278;53.674;10.014;2022-09-28T06:16:49;70.72;;;50.47;;
39584;SDS011;25278;53.674;10.014;2022-09-28T06:19:15;45.53;;;31.83;;
39584;SDS011;25278;53.674;10.014;2022-09-28T06:21:41;49.35;;;32.60;;
39584;SDS011;25278;53.674;10.014;2022-09-28T06:24:07;52.65;;;33.95;;
39584;SDS011;25278;53.674;10.014;2022-09-28T06:26:33;61.53;;;36.55;;
39584;SDS011;25278;53.674;10.014;2022-09-28T06:28:59;60.72;;;37.90;;
39584;SDS011;25278;53.674;10.014;2022-09-28T06:31:26;62.47;;;38.40;;
39584;SDS011;25278;53.674;10.014;2022-09-28T06:33:54;62.35;;;38.90;;
39584;SDS011;25278;53.674;10.014;2022-09-28T06:36:20;58.50;;;36.45;;
39584;SDS011;25278;53.674;10.014;2022-09-28T06:38:46;53.13;;;37.35;;
39584;SDS011;25278;53.674;10.014;2022-09-28T06:41:13;58.55;;;39.05;;
39584;SDS011;25278;53.674;10.014;2022-09-28T06:43:39;53.38;;;38.85;;
39584;SDS011;25278;53.674;10.014;2022-09-28T06:46:05;55.10;;;37.35;;
39584;SDS011;25278;53.674;10.014;2022-09-28T06:48:31;54.20;;;38.15;;
39584;SDS011;25278;53.674;10.014;2022-09-28T06:50:58;49.67;;;36.40;;
39584;SDS011;25278;53.674;10.014;2022-09-28T06:53:24;48.80;;;37.13;;
39584;SDS011;25278;53.674;10.014;2022-09-28T06:55:52;48.03;;;36.42;;
39584;SDS011;25278;53.674;10.014;2022-09-28T06:58:18;45.45;;;34.72;;
39584;SDS011;25278;53.674;10.014;2022-09-28T07:00:44;46.65;;;34.38;;
39584;SDS011;25278;53.674;10.014;2022-09-28T07:03:14;45.92;;;34.42;;
39584;SDS011;25278;53.674;10.014;2022-09-28T07:05:45;48.35;;;36.85;;
39584;SDS011;25278;53.674;10.014;2022-09-28T07:10:40;52.58;;;38.78;;
39584;SDS011;25278;53.674;10.014;2022-09-28T07:13:07;60.88;;;42.72;;
39584;SDS011;25278;53.674;10.014;2022-09-28T07:15:33;54.78;;;40.28;;
39584;SDS011;25278;53.674;10.014;2022-09-28T07:18:00;55.97;;;39.78;;
39584;SDS011;25278;53.674;10.014;2022-09-28T07:20:27;54.15;;;41.25;;
39584;SDS011;25278;53.674;10.014;2022-09-28T07:22:53;50.15;;;38.42;;
39584;SDS011;25278;53.674;10.014;2022-09-28T07:25:19;48.97;;;39.17;;
39584;SDS011;25278;53.674;10.014;2022-09-28T07:27:45;51.53;;;39.50;;
39584;SDS011;25278;53.674;10.014;2022-09-28T07:30:11;52.08;;;38.83;;
39584;SDS011;25278;53.674;10.014;2022-09-28T07:32:38;47.95;;;37.13;;
39584;SDS011;25278;53.674;10.014;2022-09-28T07:35:04;47.67;;;37.30;;
39584;SDS011;25278;53.674;10.014;2022-09-28T07:37:32;45.05;;;35.80;;
39584;SDS011;25278;53.674;10.014;2022-09-28T07:39:58;44.75;;;34.50;;
39584;SDS011;25278;53.674;10.014;2022-09-28T07:42:43;48.30;;;37.03;;
39584;SDS011;25278;53.674;10.014;2022-09-28T07:45:09;44.92;;;37.30;;
39584;SDS011;25278;53.674;10.014;2022-09-28T07:47:35;52.05;;;37.97;;
39584;SDS011;25278;53.674;10.014;2022-09-28T07:50:01;47.28;;;37.78;;
39584;SDS011;25278;53.674;10.014;2022-09-28T07:52:27;54.90;;;41.10;;
39584;SDS011;25278;53.674;10.014;2022-09-28T07:54:56;49.63;;;37.17;;
39584;SDS011;25278;53.674;10.014;2022-09-28T07:57:22;48.15;;;36.50;;
39584;SDS011;25278;53.674;10.014;2022-09-28T07:59:49;43.63;;;35.38;;
39584;SDS011;25278;53.674;10.014;2022-09-28T08:02:17;39.80;;;33.40;;
39584;SDS011;25278;53.674;10.014;2022-09-28T08:04:44;38.50;;;32.72;;
39584;SDS011;25278;53.674;10.014;2022-09-28T08:07:10;38.60;;;30.85;;
39584;SDS011;25278;53.674;10.014;2022-09-28T08:09:36;35.03;;;30.35;;
39584;SDS011;25278;53.674;10.014;2022-09-28T08:12:02;32.22;;;28.58;;
39584;SDS011;25278;53.674;10.014;2022-09-28T08:14:29;31.70;;;26.42;;
39584;SDS011;25278;53.674;10.014;2022-09-28T08:17:02;34.85;;;27.77;;
39584;SDS011;25278;53.674;10.014;2022-09-28T08:19:28;32.35;;;26.33;;
39584;SDS011;25278;53.674;10.014;2022-09-28T08:22:15;36.22;;;29.13;;
39584;SDS011;25278;53.674;10.014;2022-09-28T08:24:42;36.88;;;29.55;;
39584;SDS011;25278;53.674;10.014;2022-09-28T08:27:08;36.47;;;31.45;;
39584;SDS011;25278;53.674;10.014;2022-09-28T08:29:34;34.80;;;29.33;;
39584;SDS011;25278;53.674;10.014;2022-09-28T08:32:00;32.95;;;28.38;;
39584;SDS011;25278;53.674;10.014;2022-09-28T08:34:26;30.75;;;26.35;;
39584;SDS011;25278;53.674;10.014;2022-09-28T08:36:55;30.52;;;25.48;;
39584;SDS011;25278;53.674;10.014;2022-09-28T08:39:21;28.77;;;24.73;;
39584;SDS011;25278;53.674;10.014;2022-09-28T08:41:48;25.90;;;22.02;;
39584;SDS011;25278;53.674;10.014;2022-09-28T08:44:17;24.70;;;22.13;;
39584;SDS011;25278;53.674;10.014;2022-09-28T08:46:48;25.95;;;22.83;;
39584;SDS011;25278;53.674;10.014;2022-09-28T08:57:10;30.65;;;24.95;;
39584;SDS011;25278;53.674;10.014;2022-09-28T08:59:42;28.10;;;25.08;;
39584;SDS011;25278;53.674;10.014;2022-09-28T09:02:13;26.88;;;24.00;;
39584;SDS011;25278;53.674;10.014;2022-09-28T09:04:39;30.38;;;24.50;;
39584;SDS011;25278;53.674;10.014;2022-09-28T09:17:22;25.98;;;22.08;;
39584;SDS011;25278;53.674;10.014;2022-09-28T09:19:52;30.92;;;26.67;;
39584;SDS011;25278;53.674;10.014;2022-09-28T09:22:37;27.95;;;24.27;;
39584;SDS011;25278;53.674;10.014;2022-09-28T09:25:15;26.60;;;22.48;;
39584;SDS011;25278;53.674;10.014;2022-09-28T09:27:49;28.67;;;23.45;;
39584;SDS011;25278;53.674;10.014;2022-09-28T09:30:20;70.40;;;56.33;;
39584;SDS011;25278;53.674;10.014;2022-09-28T09:38:00;21.38;;;19.10;;
39584;SDS011;25278;53.674;10.014;2022-09-28T09:43:37;21.30;;;18.40;;
39584;SDS011;25278;53.674;10.014;2022-09-28T09:48:51;17.05;;;15.27;;
39584;SDS011;25278;53.674;10.014;2022-09-28T09:51:21;22.13;;;16.45;;
39584;SDS011;25278;53.674;10.014;2022-09-28T09:53:50;19.02;;;16.05;;
39584;SDS011;25278;53.674;10.014;2022-09-28T09:56:19;18.07;;;15.87;;
39584;SDS011;25278;53.674;10.014;2022-09-28T09:58:49;18.10;;;14.95;;
39584;SDS011;25278;53.674;10.014;2022-09-28T10:01:17;16.07;;;14.30;;
39584;SDS011;25278;53.674;10.014;2022-09-28T10:03:45;16.63;;;14.15;;
39584;SDS011;25278;53.674;10.014;2022-09-28T10:06:15;16.83;;;13.85;;
39584;SDS011;25278;53.674;10.014;2022-09-28T10:08:43;16.85;;;14.00;;
39584;SDS011;25278;53.674;10.014;2022-09-28T10:11:11;15.50;;;13.90;;
39584;SDS011;25278;53.674;10.014;2022-09-28T10:13:38;15.23;;;13.57;;
39584;SDS011;25278;53.674;10.014;2022-09-28T10:16:05;14.75;;;13.25;;
39584;SDS011;25278;53.674;10.014;2022-09-28T10:18:31;12.60;;;11.30;;
39584;SDS011;25278;53.674;10.014;2022-09-28T10:20:58;14.93;;;11.68;;
39584;SDS011;25278;53.674;10.014;2022-09-28T10:23:28;11.93;;;10.82;;
39584;SDS011;25278;53.674;10.014;2022-09-28T10:26:17;11.60;;;10.07;;
39584;SDS011;25278;53.674;10.014;2022-09-28T10:28:46;9.38;;;8.35;;
39584;SDS011;25278;53.674;10.014;2022-09-28T10:31:57;12.75;;;8.80;;
39584;SDS011;25278;53.674;10.014;2022-09-28T10:34:05;9.43;;;8.35;;
39584;SDS011;25278;53.674;10.014;2022-09-28T10:36:32;11.63;;;7.75;;
39584;SDS011;25278;53.674;10.014;2022-09-28T10:39:03;8.50;;;7.68;;
39584;SDS011;25278;53.674;10.014;2022-09-28T10:41:30;10.18;;;8.20;;
39584;SDS011;25278;53.674;10.014;2022-09-28T10:43:56;12.23;;;8.05;;
39584;SDS011;25278;53.674;10.014;2022-09-28T10:46:33;9.48;;;8.57;;
39584;SDS011;25278;53.674;10.014;2022-09-28T10:49:06;12.18;;;8.38;;
39584;SDS011;25278;53.674;10.014;2022-09-28T10:51:40;8.40;;;7.05;;
39584;SDS011;25278;53.674;10.014;2022-09-28T10:54:08;8.93;;;7.47;;
39584;SDS011;25278;53.674;10.014;2022-09-28T10:56:37;7.18;;;5.47;;
39584;SDS011;25278;53.674;10.014;2022-09-28T11:01:54;6.13;;;5.28;;
39584;SDS011;25278;53.674;10.014;2022-09-28T11:04:20;5.82;;;4.97;;
39584;SDS011;25278;53.674;10.014;2022-09-28T11:06:47;6.03;;;4.68;;
39584;SDS011;25278;53.674;10.014;2022-09-28T11:09:21;7.20;;;4.68;;
39584;SDS011;25278;53.674;10.014;2022-09-28T11:11:48;7.47;;;5.70;;
39584;SDS011;25278;53.674;10.014;2022-09-28T11:17:29;7.78;;;5.05;;
39584;SDS011;25278;53.674;10.014;2022-09-28T11:19:57;4.57;;;3.35;;
39584;SDS011;25278;53.674;10.014;2022-09-28T11:22:27;4.60;;;3.33;;
39584;SDS011;25278;53.674;10.014;2022-09-28T11:25:11;5.18;;;3.95;;
39584;SDS011;25278;53.674;10.014;2022-09-28T11:27:38;3.78;;;2.90;;
39584;SDS011;25278;53.674;10.014;2022-09-28T11:30:04;5.10;;;3.03;;
39584;SDS011;25278;53.674;10.014;2022-09-28T11:32:31;4.03;;;2.95;;
39584;SDS011;25278;53.674;10.014;2022-09-28T11:35:04;3.08;;;2.50;;
39584;SDS011;25278;53.674;10.014;2022-09-28T11:37:52;3.60;;;2.70;;
39584;SDS011;25278;53.674;10.014;2022-09-28T11:41:04;5.05;;;2.63;;
39584;SDS011;25278;53.674;10.014;2022-09-28T11:45:39;2.75;;;1.92;;
39584;SDS011;25278;53.674;10.014;2022-09-28T11:48:10;2.05;;;1.02;;
39584;SDS011;25278;53.674;10.014;2022-09-28T11:50:41;3.42;;;1.67;;
39584;SDS011;25278;53.674;10.014;2022-09-28T11:55:40;1.75;;;1.25;;
39584;SDS011;25278;53.674;10.014;2022-09-28T11:58:11;2.92;;;1.40;;
39584;SDS011;25278;53.674;10.014;2022-09-28T12:00:57;2.38;;;1.30;;
39584;SDS011;25278;53.674;10.014;2022-09-28T12:03:25;2.47;;;1.40;;
39584;SDS011;25278;53.674;10.014;2022-09-28T12:06:01;3.80;;;1.20;;
39584;SDS011;25278;53.674;10.014;2022-09-28T12:08:39;3.67;;;1.90;;
39584;SDS011;25278;53.674;10.014;2022-09-28T12:11:06;3.20;;;1.48;;
39584;SDS011;25278;53.674;10.014;2022-09-28T12:13:37;1.85;;;0.93;;
39584;SDS011;25278;53.674;10.014;2022-09-28T12:16:12;2.50;;;1.20;;
39584;SDS011;25278;53.674;10.014;2022-09-28T12:26:46;3.67;;;1.20;;
39584;SDS011;25278;53.674;10.014;2022-09-28T12:29:16;2.15;;;1.27;;
39584;SDS011;25278;53.674;10.014;2022-09-28T12:31:51;3.42;;;1.20;;
39584;SDS011;25278;53.674;10.014;2022-09-28T12:34:18;2.13;;;1.30;;
39584;SDS011;25278;53.674;10.014;2022-09-28T12:51:58;2.70;;;1.50;;
39584;SDS011;25278;53.674;10.014;2022-09-28T12:54:32;1.98;;;1.17;;
39584;SDS011;25278;53.674;10.014;2022-09-28T12:59:41;2.80;;;1.30;;
39584;SDS011;25278;53.674;10.014;2022-09-28T13:05:07;1.63;;;1.10;;
39584;SDS011;25278;53.674;10.014;2022-09-28T13:10:14;2.63;;;1.27;;
39584;SDS011;25278;53.674;10.014;2022-09-28T13:15:26;1.98;;;1.15;;
39584;SDS011;25278;53.674;10.014;2022-09-28T13:20:41;2.22;;;1.13;;
39584;SDS011;25278;53.674;10.014;2022-09-28T13:23:15;2.35;;;1.83;;
39584;SDS011;25278;53.674;10.014;2022-09-28T13:25:44;3.47;;;2.25;;
39584;SDS011;25278;53.674;10.014;2022-09-28T13:28:12;9.43;;;2.00;;
39584;SDS011;25278;53.674;10.014;2022-09-28T13:30:39;3.13;;;1.48;;
39584;SDS011;25278;53.674;10.014;2022-09-28T13:33:06;3.70;;;1.30;;
39584;SDS011;25278;53.674;10.014;2022-09-28T13:35:32;5.82;;;1.77;;
39584;SDS011;25278;53.674;10.014;2022-09-28T13:43:29;2.97;;;2.03;;
39584;SDS011;25278;53.674;10.014;2022-09-28T13:45:56;2.90;;;1.55;;
39584;SDS011;25278;53.674;10.014;2022-09-28T13:48:32;3.63;;;1.63;;
39584;SDS011;25278;53.674;10.014;2022-09-28T13:58:59;3.22;;;2.20;;
39584;SDS011;25278;53.674;10.014;2022-09-28T14:01:29;2.78;;;2.10;;
39584;SDS011;25278;53.674;10.014;2022-09-28T14:04:11;4.20;;;2.10;;
39584;SDS011;25278;53.674;10.014;2022-09-28T14:06:40;3.42;;;1.88;;
39584;SDS011;25278;53.674;10.014;2022-09-28T14:16:34;4.63;;;2.28;;
39584;SDS011;25278;53.674;10.014;2022-09-28T14:24:16;4.70;;;2.00;;
39584;SDS011;25278;53.674;10.014;2022-09-28T14:29:31;5.93;;;3.17;;
39584;SDS011;25278;53.674;10.014;2022-09-28T14:36:59;3.33;;;2.30;;
39584;SDS011;25278;53.674;10.014;2022-09-28T14:39:45;5.38;;;2.40;;
39584;SDS011;25278;53.674;10.014;2022-09-28T14:42:30;3.45;;;2.17;;
39584;SDS011;25278;53.674;10.014;2022-09-28T14:47:35;8.18;;;1.92;;
39584;SDS011;25278;53.674;10.014;2022-09-28T14:52:47;3.75;;;1.92;;
39584;SDS011;25278;53.674;10.014;2022-09-28T14:55:16;4.40;;;2.22;;
39584;SDS011;25278;53.674;10.014;2022-09-28T14:57:42;2.50;;;1.60;;
39584;SDS011;25278;53.674;10.014;2022-09-28T15:00:17;3.95;;;2.10;;
39584;SDS011;25278;53.674;10.014;2022-09-28T15:02:46;3.85;;;1.90;;
39584;SDS011;25278;53.674;10.014;2022-09-28T15:05:14;2.87;;;1.83;;
39584;SDS011;25278;53.674;10.014;2022-09-28T15:07:42;4.95;;;1.80;;
39584;SDS011;25278;53.674;10.014;2022-09-28T15:10:18;5.10;;;2.15;;
39584;SDS011;25278;53.674;10.014;2022-09-28T15:12:47;3.35;;;1.73;;
39584;SDS011;25278;53.674;10.014;2022-09-28T15:15:57;3.38;;;1.50;;
39584;SDS011;25278;53.674;10.014;2022-09-28T15:18:15;1.77;;;1.60;;
39584;SDS011;25278;53.674;10.014;2022-09-28T15:20:42;2.33;;;1.50;;
39584;SDS011;25278;53.674;10.014;2022-09-28T15:23:23;3.77;;;1.93;;
39584;SDS011;25278;53.674;10.014;2022-09-28T15:25:51;6.82;;;1.85;;
39584;SDS011;25278;53.674;10.014;2022-09-28T15:28:18;2.40;;;1.67;;
39584;SDS011;25278;53.674;10.014;2022-09-28T15:30:46;3.43;;;1.70;;
39584;SDS011;25278;53.674;10.014;2022-09-28T15:36:29;2.42;;;1.40;;
39584;SDS011;25278;53.674;10.014;2022-09-28T15:39:00;2.92;;;1.63;;
39584;SDS011;25278;53.674;10.014;2022-09-28T15:41:26;6.32;;;2.13;;
39584;SDS011;25278;53.674;10.014;2022-09-28T15:44:06;1.67;;;1.35;;
39584;SDS011;25278;53.674;10.014;2022-09-28T15:46:33;2.58;;;1.40;;
39584;SDS011;25278;53.674;10.014;2022-09-28T15:49:00;3.83;;;2.03;;
39584;SDS011;25278;53.674;10.014;2022-09-28T15:51:28;3.45;;;1.98;;
39584;SDS011;25278;53.674;10.014;2022-09-28T15:54:02;4.53;;;2.42;;
39584;SDS011;25278;53.674;10.014;2022-09-28T15:56:28;2.80;;;1.88;;
39584;SDS011;25278;53.674;10.014;2022-09-28T15:59:08;3.28;;;1.50;;
39584;SDS011;25278;53.674;10.014;2022-09-28T16:01:35;3.47;;;1.48;;
39584;SDS011;25278;53.674;10.014;2022-09-28T16:09:30;3.40;;;1.73;;
39584;SDS011;25278;53.674;10.014;2022-09-28T16:11:56;3.72;;;1.50;;
39584;SDS011;25278;53.674;10.014;2022-09-28T16:14:23;3.05;;;1.92;;
39584;SDS011;25278;53.674;10.014;2022-09-28T16:16:50;4.38;;;1.60;;
39584;SDS011;25278;53.674;10.014;2022-09-28T16:19:20;1.65;;;1.50;;
39584;SDS011;25278;53.674;10.014;2022-09-28T16:21:48;3.85;;;1.70;;
39584;SDS011;25278;53.674;10.014;2022-09-28T16:24:22;2.65;;;1.63;;
39584;SDS011;25278;53.674;10.014;2022-09-28T16:26:54;4.75;;;1.83;;
39584;SDS011;25278;53.674;10.014;2022-09-28T16:29:25;3.83;;;2.03;;
39584;SDS011;25278;53.674;10.014;2022-09-28T16:31:51;4.78;;;3.03;;
39584;SDS011;25278;53.674;10.014;2022-09-28T16:34:18;3.35;;;2.08;;
39584;SDS011;25278;53.674;10.014;2022-09-28T16:36:46;3.22;;;1.98;;
39584;SDS011;25278;53.674;10.014;2022-09-28T16:39:12;2.63;;;1.45;;
39584;SDS011;25278;53.674;10.014;2022-09-28T16:41:40;4.03;;;1.73;;
39584;SDS011;25278;53.674;10.014;2022-09-28T16:44:26;3.25;;;1.45;;
39584;SDS011;25278;53.674;10.014;2022-09-28T16:46:54;2.90;;;1.65;;
39584;SDS011;25278;53.674;10.014;2022-09-28T16:49:22;4.65;;;2.03;;
39584;SDS011;25278;53.674;10.014;2022-09-28T16:51:49;5.30;;;2.70;;
39584;SDS011;25278;53.674;10.014;2022-09-28T16:54:16;6.95;;;2.85;;
39584;SDS011;25278;53.674;10.014;2022-09-28T16:57:02;4.50;;;2.95;;
39584;SDS011;25278;53.674;10.014;2022-09-28T16:59:29;7.78;;;3.03;;
39584;SDS011;25278;53.674;10.014;2022-09-28T17:01:55;3.58;;;2.75;;
39584;SDS011;25278;53.674;10.014;2022-09-28T17:04:24;4.22;;;2.22;;
39584;SDS011;25278;53.674;10.014;2022-09-28T17:06:50;5.68;;;2.80;;
39584;SDS011;25278;53.674;10.014;2022-09-28T17:09:18;3.95;;;2.70;;
39584;SDS011;25278;53.674;10.014;2022-09-28T17:11:44;5.15;;;2.80;;
39584;SDS011;25278;53.674;10.014;2022-09-28T17:14:10;4.47;;;2.90;;
39584;SDS011;25278;53.674;10.014;2022-09-28T17:16:37;4.22;;;2.50;;
39584;SDS011;25278;53.674;10.014;2022-09-28T17:19:15;5.82;;;3.03;;
39584;SDS011;25278;53.674;10.014;2022-09-28T17:21:42;7.07;;;2.53;;
39584;SDS011;25278;53.674;10.014;2022-09-28T17:24:08;5.95;;;3.60;;
39584;SDS011;25278;53.674;10.014;2022-09-28T17:26:34;5.72;;;2.90;;
39584;SDS011;25278;53.674;10.014;2022-09-28T17:29:00;7.80;;;3.80;;
39584;SDS011;25278;53.674;10.014;2022-09-28T17:31:27;7.75;;;3.50;;
39584;SDS011;25278;53.674;10.014;2022-09-28T17:33:53;4.95;;;3.38;;
39584;SDS011;25278;53.674;10.014;2022-09-28T17:36:19;6.45;;;3.25;;
39584;SDS011;25278;53.674;10.014;2022-09-28T17:38:46;4.80;;;3.40;;
39584;SDS011;25278;53.674;10.014;2022-09-28T17:41:13;5.00;;;3.63;;
39584;SDS011;25278;53.674;10.014;2022-09-28T17:43:39;9.13;;;3.92;;
39584;SDS011;25278;53.674;10.014;2022-09-28T17:46:06;6.68;;;4.43;;
39584;SDS011;25278;53.674;10.014;2022-09-28T17:48:37;6.05;;;4.00;;
39584;SDS011;25278;53.674;10.014;2022-09-28T17:51:03;6.80;;;4.38;;
39584;SDS011;25278;53.674;10.014;2022-09-28T17:53:29;10.52;;;4.57;;
39584;SDS011;25278;53.674;10.014;2022-09-28T17:55:55;9.30;;;4.82;;
39584;SDS011;25278;53.674;10.014;2022-09-28T17:58:21;9.55;;;4.95;;
39584;SDS011;25278;53.674;10.014;2022-09-28T18:00:48;8.45;;;4.25;;
39584;SDS011;25278;53.674;10.014;2022-09-28T18:03:18;7.80;;;4.90;;
39584;SDS011;25278;53.674;10.014;2022-09-28T18:05:45;12.38;;;4.82;;
39584;SDS011;25278;53.674;10.014;2022-09-28T18:08:13;9.13;;;5.38;;
39584;SDS011;25278;53.674;10.014;2022-09-28T18:10:40;8.80;;;5.55;;
39584;SDS011;25278;53.674;10.014;2022-09-28T18:13:06;8.73;;;5.07;;
39584;SDS011;25278;53.674;10.014;2022-09-28T18:15:31;5.75;;;4.90;;
39584;SDS011;25278;53.674;10.014;2022-09-28T18:17:57;6.75;;;5.05;;
39584;SDS011;25278;53.674;10.014;2022-09-28T18:20:24;6.10;;;4.25;;
39584;SDS011;25278;53.674;10.014;2022-09-28T18:22:50;7.75;;;4.30;;
39584;SDS011;25278;53.674;10.014;2022-09-28T18:25:16;7.07;;;4.53;;
39584;SDS011;25278;53.674;10.014;2022-09-28T18:27:42;7.63;;;4.55;;
39584;SDS011;25278;53.674;10.014;2022-09-28T18:30:08;15.50;;;6.05;;
39584;SDS011;25278;53.674;10.014;2022-09-28T18:32:34;8.40;;;5.55;;
39584;SDS011;25278;53.674;10.014;2022-09-28T18:35:04;10.02;;;6.00;;
39584;SDS011;25278;53.674;10.014;2022-09-28T18:37:33;10.45;;;6.82;;
39584;SDS011;25278;53.674;10.014;2022-09-28T18:42:25;13.00;;;7.22;;
39584;SDS011;25278;53.674;10.014;2022-09-28T18:44:51;12.52;;;7.60;;
39584;SDS011;25278;53.674;10.014;2022-09-28T18:47:17;9.00;;;7.13;;
39584;SDS011;25278;53.674;10.014;2022-09-28T18:49:43;12.70;;;7.35;;
39584;SDS011;25278;53.674;10.014;2022-09-28T18:52:09;10.35;;;6.57;;
39584;SDS011;25278;53.674;10.014;2022-09-28T18:54:35;11.68;;;6.60;;
39584;SDS011;25278;53.674;10.014;2022-09-28T18:57:03;11.73;;;7.28;;
39584;SDS011;25278;53.674;10.014;2022-09-28T18:59:30;22.02;;;13.80;;
39584;SDS011;25278;53.674;10.014;2022-09-28T19:01:56;13.55;;;9.65;;
39584;SDS011;25278;53.674;10.014;2022-09-28T19:04:22;12.25;;;9.52;;
39584;SDS011;25278;53.674;10.014;2022-09-28T19:06:48;12.38;;;9.23;;
39584;SDS011;25278;53.674;10.014;2022-09-28T19:09:16;12.65;;;8.85;;
39584;SDS011;25278;53.674;10.014;2022-09-28T19:11:42;17.67;;;11.88;;
39584;SDS011;25278;53.674;10.014;2022-09-28T19:14:08;14.27;;;9.98;;
39584;SDS011;25278;53.674;10.014;2022-09-28T19:16:35;11.85;;;9.23;;
39584;SDS011;25278;53.674;10.014;2022-09-28T19:19:01;15.32;;;9.65;;
39584;SDS011;25278;53.674;10.014;2022-09-28T19:21:27;16.58;;;9.80;;
39584;SDS011;25278;53.674;10.014;2022-09-28T19:23:53;12.93;;;9.82;;
39584;SDS011;25278;53.674;10.014;2022-09-28T19:26:21;11.45;;;9.40;;
39584;SDS011;25278;53.674;10.014;2022-09-28T19:28:47;11.18;;;9.43;;
39584;SDS011;25278;53.674;10.014;2022-09-28T19:31:14;13.20;;;9.85;;
39584;SDS011;25278;53.674;10.014;2022-09-28T19:33:40;11.18;;;8.82;;
39584;SDS011;25278;53.674;10.014;2022-09-28T19:36:07;11.52;;;9.15;;
39584;SDS011;25278;53.674;10.014;2022-09-28T19:38:34;10.95;;;8.70;;
39584;SDS011;25278;53.674;10.014;2022-09-28T19:41:00;11.63;;;9.65;;
39584;SDS011;25278;53.674;10.014;2022-09-28T19:43:26;13.52;;;10.20;;
39584;SDS011;25278;53.674;10.014;2022-09-28T19:45:53;14.70;;;10.68;;
39584;SDS011;25278;53.674;10.014;2022-09-28T19:48:26;17.65;;;12.85;;
39584;SDS011;25278;53.674;10.014;2022-09-28T19:50:53;16.88;;;13.30;;
39584;SDS011;25278;53.674;10.014;2022-09-28T19:53:20;18.15;;;13.57;;
39584;SDS011;25278;53.674;10.014;2022-09-28T19:55:49;17.35;;;14.40;;
39584;SDS011;25278;53.674;10.014;2022-09-28T19:58:15;18.63;;;15.15;;